Time;durP1;ratioP1;P1;durP2;ratioP2;P2;SDS_P1;SDS_P2;PMS_P1;PMS_P2;Temp;Humidity;BMP_temperature;BMP_pressure;BME280_temperature;BME280_humidity;BME280_pressure;Samples;Min_cycle;Max_cycle;Signal;HPM_P1;HPM_P2
2022/04/10 00:02:05;;;;;;;3.72;2.00;;;;;;;16.31;52.17;97024.53;4948568;29;20181;-67
2022/04/10 00:04:30;;;;;;;2.35;2.15;;;;;;;16.34;51.85;97023.38;4948475;28;20220;-65
2022/04/10 00:06:56;;;;;;;5.10;2.10;;;;;;;16.42;51.94;97026.78;4948790;29;20742;-66
2022/04/10 00:09:21;;;;;;;3.75;2.10;;;;;;;16.43;51.87;97035.41;4948748;29;20287;-66
2022/04/10 00:11:46;;;;;;;2.72;1.90;;;;;;;16.49;51.89;97045.16;4937966;29;20217;-66
2022/04/10 00:14:12;;;;;;;3.75;2.00;;;;;;;16.54;51.67;97032.38;4938917;29;20180;-66
2022/04/10 00:16:38;;;;;;;3.35;2.55;;;;;;;16.20;52.58;97029.34;4944411;29;20192;-65
2022/04/10 00:19:04;;;;;;;5.38;2.45;;;;;;;16.12;53.03;97037.22;4948790;29;20229;-66
2022/04/10 00:21:31;;;;;;;4.53;2.38;;;;;;;16.26;52.51;97028.66;4948595;29;20275;-66
2022/04/10 00:23:56;;;;;;;4.97;2.28;;;;;;;16.17;53.11;97035.72;4948792;29;20564;-66
2022/04/10 00:26:22;;;;;;;4.95;2.05;;;;;;;16.03;53.29;97038.25;4948695;29;20184;-67
2022/04/10 00:28:48;;;;;;;4.55;2.30;;;;;;;16.11;53.18;97035.59;4948536;29;20623;-66
2022/04/10 00:31:13;;;;;;;3.65;2.40;;;;;;;16.27;52.76;97030.28;4945161;29;20199;-66
2022/04/10 00:33:39;;;;;;;4.10;2.15;;;;;;;16.32;52.55;97025.34;4937677;28;20199;-65
2022/04/10 00:36:05;;;;;;;2.42;1.70;;;;;;;16.31;51.94;97026.31;4943414;29;20271;-66
2022/04/10 00:38:30;;;;;;;4.00;1.70;;;;;;;16.22;52.47;97027.38;4950698;29;20226;-66
2022/04/10 00:40:55;;;;;;;2.42;1.52;;;;;;;16.24;52.54;97022.78;4952552;29;20188;-66
2022/04/10 00:43:21;;;;;;;2.88;1.92;;;;;;;16.28;52.58;97024.88;4952478;29;20610;-67
2022/04/10 00:45:46;;;;;;;2.25;2.00;;;;;;;16.13;53.52;97017.97;4952310;29;20687;-66
2022/04/10 00:48:12;;;;;;;4.22;1.95;;;;;;;16.16;53.90;97017.63;4952232;29;20567;-65
2022/04/10 00:51:40;;;;;;;2.92;1.27;;;;;;;16.18;52.35;97018.25;4952418;29;20235;-66
2022/04/10 00:53:24;;;;;;;3.95;1.75;;;;;;;16.10;52.96;97023.53;4943487;29;20440;-65
2022/04/10 00:55:49;;;;;;;4.47;1.70;;;;;;;16.22;52.26;97025.56;4942004;29;20185;-66
2022/04/10 00:58:15;;;;;;;3.90;1.70;;;;;;;16.35;51.90;97025.00;4946123;29;20200;-67
2022/04/10 01:00:40;;;;;;;5.93;2.00;;;;;;;16.40;52.10;97030.53;4952000;29;20184;-66
2022/04/10 01:03:05;;;;;;;4.68;1.23;;;;;;;16.50;52.01;97031.13;4951794;28;20212;-65
2022/04/10 01:05:32;;;;;;;2.05;1.85;;;;;;;16.34;52.52;97028.59;4951881;29;20193;-66
2022/04/10 01:07:58;;;;;;;5.32;1.98;;;;;;;16.40;52.56;97031.38;4951909;29;20181;-66
2022/04/10 01:10:24;;;;;;;3.00;1.60;;;;;;;16.39;52.21;97028.91;4952122;29;20204;-66
2022/04/10 01:12:50;;;;;;;4.82;1.63;;;;;;;16.49;51.79;97034.72;4951521;29;20258;-67
2022/04/10 01:15:16;;;;;;;3.90;1.73;;;;;;;16.38;51.73;97035.09;4940171;29;20189;-66
2022/04/10 01:17:43;;;;;;;1.77;1.30;;;;;;;16.39;50.95;97026.31;4941997;29;20670;-66
2022/04/10 01:20:09;;;;;;;3.75;1.50;;;;;;;16.39;50.78;97023.69;4948399;29;20670;-67
2022/04/10 01:22:36;;;;;;;3.40;1.67;;;;;;;16.38;50.57;97028.09;4951455;29;20196;-67
2022/04/10 01:25:06;;;;;;;2.83;1.80;;;;;;;16.27;50.95;97035.50;4951810;29;20351;-67
2022/04/10 01:27:38;;;;;;;3.92;1.80;;;;;;;16.25;51.06;97038.28;4951605;29;20604;-67
2022/04/10 01:30:06;;;;;;;3.03;2.30;;;;;;;15.98;51.95;97038.75;4951359;29;20184;-67
2022/04/10 01:32:32;;;;;;;2.75;1.98;;;;;;;15.93;52.07;97035.06;4951499;29;20228;-66
2022/04/10 01:34:59;;;;;;;3.10;2.17;;;;;;;15.95;50.88;97038.28;4945390;29;20280;-66
2022/04/10 01:37:27;;;;;;;3.95;2.17;;;;;;;16.08;50.20;97048.97;4940339;29;21108;-66
2022/04/10 01:39:53;;;;;;;3.83;2.53;;;;;;;16.11;50.02;97044.25;4943057;29;20618;-67
2022/04/10 01:42:18;;;;;;;5.18;2.45;;;;;;;16.22;49.74;97048.25;4951192;29;21084;-66
2022/04/10 01:44:44;;;;;;;4.45;2.47;;;;;;;16.22;49.74;97037.81;4950999;28;20212;-66
2022/04/10 01:47:09;;;;;;;5.78;3.15;;;;;;;16.37;50.05;97043.91;4951308;29;20244;-66
2022/04/10 01:49:35;;;;;;;3.40;3.10;;;;;;;16.40;50.52;97041.81;4951141;29;20275;-66
2022/04/10 01:52:01;;;;;;;6.78;2.70;;;;;;;16.40;50.48;97046.19;4951176;29;20188;-66
2022/04/10 01:54:26;;;;;;;4.47;2.90;;;;;;;16.36;49.84;97030.03;4951281;29;20251;-66
2022/04/10 01:56:52;;;;;;;4.90;2.40;;;;;;;16.39;50.46;97034.94;4940880;29;20184;-66
2022/04/10 01:59:17;;;;;;;4.32;2.65;;;;;;;16.25;50.96;97032.22;4940944;29;20657;-66
2022/04/10 02:01:43;;;;;;;3.85;2.03;;;;;;;16.05;52.18;97025.84;4945599;29;20199;-66
2022/04/10 02:04:09;;;;;;;2.05;1.73;;;;;;;16.03;52.15;97012.97;4951066;28;20227;-66
2022/04/10 02:06:35;;;;;;;3.38;1.80;;;;;;;16.11;52.02;97017.34;4950803;29;20236;-67
2022/04/10 02:09:00;;;;;;;4.25;1.60;;;;;;;16.05;52.26;97007.59;4950758;29;20196;-65
2022/04/10 02:11:26;;;;;;;4.22;1.85;;;;;;;15.91;52.93;96997.91;4950864;29;20180;-66
2022/04/10 02:13:53;;;;;;;3.92;1.67;;;;;;;16.06;52.70;96996.16;4950656;29;20192;-65
2022/04/10 02:16:19;;;;;;;2.80;1.77;;;;;;;16.06;52.60;96985.72;4949114;29;20192;-65
2022/04/10 02:18:46;;;;;;;2.70;1.83;;;;;;;16.07;51.72;96987.34;4938944;29;20211;-65
2022/04/10 02:21:11;;;;;;;4.05;2.10;;;;;;;16.15;51.56;96988.09;4923927;29;20637;-65
2022/04/10 02:23:37;;;;;;;6.80;1.63;;;;;;;15.94;52.17;96994.94;4947605;29;20193;-66
2022/04/10 02:26:03;;;;;;;5.25;1.83;;;;;;;15.98;52.09;96993.63;4950587;29;20627;-67
2022/04/10 02:28:29;;;;;;;2.70;1.52;;;;;;;16.10;51.78;96992.22;4950473;29;20658;-65
2022/04/10 02:30:54;;;;;;;3.97;1.67;;;;;;;16.01;52.23;97001.06;4950376;29;20247;-66
2022/04/10 02:33:19;;;;;;;3.20;1.95;;;;;;;15.99;52.33;97001.28;4950121;29;20195;-65
2022/04/10 02:35:45;;;;;;;1.90;1.60;;;;;;;15.76;53.09;96999.59;4950208;29;20188;-65
2022/04/10 02:38:11;;;;;;;2.92;1.40;;;;;;;15.69;53.64;96991.63;4944573;29;20224;-66
2022/04/10 02:40:36;;;;;;;2.72;1.50;;;;;;;15.66;53.10;96997.22;4939566;29;21067;-67
2022/04/10 02:43:02;;;;;;;1.85;1.40;;;;;;;15.62;53.32;96974.25;4941464;29;20741;-65
2022/04/10 02:45:27;;;;;;;5.32;1.73;;;;;;;15.64;53.57;96978.28;4950424;29;20560;-65
2022/04/10 02:47:52;;;;;;;3.75;1.90;;;;;;;15.65;53.38;96977.34;4950036;29;20216;-65
2022/04/10 02:50:18;;;;;;;3.78;1.80;;;;;;;15.61;53.75;96975.22;4949968;29;20193;-65
2022/04/10 02:52:44;;;;;;;2.55;1.90;;;;;;;15.51;53.73;96972.03;4950190;29;20489;-65
2022/04/10 02:55:10;;;;;;;6.32;2.38;;;;;;;15.59;53.49;96969.38;4949731;29;20189;-66
2022/04/10 02:57:36;;;;;;;3.53;1.80;;;;;;;15.63;53.31;96971.47;4949290;28;20216;-65
2022/04/10 03:00:04;;;;;;;2.75;2.28;;;;;;;15.70;53.29;96979.44;4940290;29;20203;-65
2022/04/10 03:02:29;;;;;;;4.80;2.08;;;;;;;15.76;53.43;96974.34;4939357;29;20192;-65
2022/04/10 03:04:55;;;;;;;2.63;2.10;;;;;;;15.69;53.37;96969.97;4944218;28;20279;-65
2022/04/10 03:07:20;;;;;;;3.33;1.52;;;;;;;15.55;53.88;96974.13;4949709;29;20193;-65
2022/04/10 03:09:45;;;;;;;2.03;1.75;;;;;;;15.68;53.37;96973.59;4949870;29;20197;-67
2022/04/10 03:12:11;;;;;;;2.90;1.85;;;;;;;15.55;53.79;96970.69;4949397;29;20648;-65
2022/04/10 03:14:36;;;;;;;1.77;1.67;;;;;;;15.57;53.82;96976.56;4949515;29;20196;-65
2022/04/10 03:17:02;;;;;;;1.55;1.45;;;;;;;15.54;53.98;96974.28;4932148;29;20188;-65
2022/04/10 03:19:28;;;;;;;3.13;1.73;;;;;;;15.57;54.06;96976.56;4948126;29;20618;-65
2022/04/10 03:21:54;;;;;;;2.85;2.22;;;;;;;15.49;54.57;96972.19;4938113;29;20200;-65
2022/04/10 03:24:19;;;;;;;2.47;1.65;;;;;;;15.40;54.91;96982.84;4939886;29;20185;-65
2022/04/10 03:26:45;;;;;;;2.58;1.48;;;;;;;15.47;54.78;96968.13;4946665;29;20200;-65
2022/04/10 03:29:12;;;;;;;1.52;1.42;;;;;;;15.56;54.77;96983.56;4949323;29;20200;-65
2022/04/10 03:31:38;;;;;;;4.65;2.00;;;;;;;15.72;53.65;96985.28;4949133;29;20727;-65
2022/04/10 03:34:03;;;;;;;5.90;1.50;;;;;;;15.83;53.71;96990.94;4949275;29;20275;-65
2022/04/10 03:36:28;;;;;;;3.55;2.22;;;;;;;15.90;53.87;96980.59;4949184;29;20244;-65
2022/04/10 03:38:54;;;;;;;5.05;2.65;;;;;;;15.76;55.14;96974.34;4949064;29;20704;-65
2022/04/10 03:41:19;;;;;;;3.97;2.60;;;;;;;15.81;55.77;96971.22;4943441;29;20291;-65
2022/04/10 03:43:45;;;;;;;3.83;2.10;;;;;;;15.91;55.57;96977.81;4938678;29;20588;-65
2022/04/10 03:46:10;;;;;;;5.32;2.97;;;;;;;16.04;55.21;96977.28;4940302;29;20263;-67
2022/04/10 03:48:35;;;;;;;4.28;2.42;;;;;;;15.84;55.83;96970.84;4948997;29;20247;-65
2022/04/10 03:51:01;;;;;;;4.05;2.35;;;;;;;15.77;56.43;96972.53;4948990;29;20695;-65
2022/04/10 03:53:26;;;;;;;4.57;2.33;;;;;;;15.83;56.35;96967.47;4948787;29;20275;-65
2022/04/10 03:55:51;;;;;;;7.10;3.55;;;;;;;15.57;58.63;96968.75;4948905;29;20236;-65
2022/04/10 03:58:17;;;;;;;5.82;2.75;;;;;;;15.73;56.99;96969.47;4948737;29;20204;-67
2022/04/10 04:00:44;;;;;;;3.38;2.33;;;;;;;15.79;56.96;96975.78;4948788;29;20195;-65
2022/04/10 04:03:10;;;;;;;4.43;2.15;;;;;;;15.76;55.89;96986.56;4939129;28;20217;-65
2022/04/10 04:05:35;;;;;;;2.13;1.88;;;;;;;15.88;55.60;96991.22;4938596;29;20701;-65
2022/04/10 04:08:01;;;;;;;3.65;3.33;;;;;;;15.96;55.43;96996.38;4943391;29;20212;-65
2022/04/10 04:10:26;;;;;;;5.35;2.65;;;;;;;16.09;56.05;96994.00;4948853;29;20188;-65
2022/04/10 04:12:53;;;;;;;5.70;3.05;;;;;;;16.17;56.69;96996.59;4948595;29;20215;-65
2022/04/10 04:15:19;;;;;;;8.10;2.95;;;;;;;16.08;58.04;96997.63;4948912;29;20200;-65
2022/04/10 04:17:44;;;;;;;6.18;3.00;;;;;;;16.16;58.61;96996.75;4948527;29;20295;-65
2022/04/10 04:20:10;;;;;;;6.53;2.60;;;;;;;16.18;58.21;96992.97;4948658;29;20185;-65
2022/04/10 04:22:35;;;;;;;4.93;2.53;;;;;;;16.29;57.21;97004.81;4946951;29;20247;-65
2022/04/10 04:25:06;;;;;;;5.05;2.28;;;;;;;16.29;56.29;97003.03;4937069;29;20200;-65
2022/04/10 04:27:31;;;;;;;4.38;2.53;;;;;;;16.36;56.49;97014.38;4939665;29;20457;-65
2022/04/10 04:29:57;;;;;;;4.65;2.15;;;;;;;16.23;57.14;97010.72;4946265;29;20601;-65
2022/04/10 04:32:22;;;;;;;2.45;2.20;;;;;;;16.21;57.12;97015.31;4948568;29;20184;-65
2022/04/10 04:34:47;;;;;;;5.15;2.22;;;;;;;16.20;57.71;97016.31;4948514;29;20195;-65
2022/04/10 04:37:13;;;;;;;4.57;2.28;;;;;;;16.23;57.83;97018.56;4948417;29;20224;-65
2022/04/10 04:39:39;;;;;;;7.03;2.33;;;;;;;16.26;57.57;97018.22;4948147;29;20181;-65
2022/04/10 04:42:05;;;;;;;4.90;2.50;;;;;;;16.28;57.82;97032.69;4948636;29;20987;-65
2022/04/10 04:44:30;;;;;;;13.13;6.15;;;;;;;16.38;58.50;97043.75;4942215;29;20729;-65
2022/04/10 04:46:57;;;;;;;10.48;5.55;;;;;;;16.40;61.90;97052.25;4937594;29;20203;-66
2022/04/10 04:49:22;;;;;;;8.10;5.00;;;;;;;16.31;63.44;97057.63;4940038;29;20203;-65
2022/04/10 04:51:47;;;;;;;10.23;4.65;;;;;;;16.19;64.06;97064.25;4948694;29;20192;-65
2022/04/10 04:54:13;;;;;;;8.60;4.47;;;;;;;16.05;64.83;97057.97;4948331;29;20574;-66
2022/04/10 04:56:38;;;;;;;11.57;4.53;;;;;;;15.94;65.69;97065.38;4948289;29;20648;-66
2022/04/10 04:59:04;;;;;;;9.05;4.68;;;;;;;15.91;66.56;97066.50;4947899;29;20219;-66
2022/04/10 05:01:29;;;;;;;15.35;5.45;;;;;;;15.84;66.94;97064.75;4948248;29;20684;-66
2022/04/10 05:03:54;;;;;;;8.25;4.70;;;;;;;15.78;67.51;97061.03;4948085;28;20235;-66
2022/04/10 05:06:20;;;;;;;7.45;4.50;;;;;;;15.78;67.75;97057.59;4938744;29;20196;-66
2022/04/10 05:08:46;;;;;;;8.88;4.63;;;;;;;15.73;68.13;97052.09;4937811;29;20653;-66
2022/04/10 05:11:13;;;;;;;8.05;4.43;;;;;;;15.58;68.57;97045.97;4942912;29;20193;-66
2022/04/10 05:13:39;;;;;;;10.02;5.15;;;;;;;15.33;70.46;97054.84;4948335;29;20185;-66
2022/04/10 05:16:05;;;;;;;7.43;4.03;;;;;;;15.23;71.26;97060.19;4948397;29;20974;-66
2022/04/10 05:18:30;;;;;;;7.35;4.20;;;;;;;15.07;72.46;97049.84;4947751;29;20619;-66
2022/04/10 05:20:56;;;;;;;14.88;5.75;;;;;;;14.88;73.92;97065.00;4949778;28;20235;-66
2022/04/10 05:23:21;;;;;;;10.27;4.30;;;;;;;14.96;73.79;97062.38;4951659;29;20263;-66
2022/04/10 05:25:48;;;;;;;8.43;4.65;;;;;;;14.78;75.41;97061.75;4949103;29;20742;-65
2022/04/10 05:28:14;;;;;;;11.90;5.07;;;;;;;14.96;74.19;97055.38;4940120;29;20188;-66
2022/04/10 05:30:40;;;;;;;11.18;5.22;;;;;;;15.12;73.98;97062.34;4942092;29;20702;-67
2022/04/10 05:33:06;;;;;;;11.32;5.05;;;;;;;15.12;73.87;97054.53;4949635;29;20289;-66
2022/04/10 05:35:31;;;;;;;9.93;4.55;;;;;;;15.24;73.51;97064.47;4951398;29;20820;-66
2022/04/10 05:37:57;;;;;;;11.60;5.97;;;;;;;15.25;73.39;97068.69;4951174;29;20204;-66
2022/04/10 05:40:22;;;;;;;10.13;5.07;;;;;;;15.31;73.44;97056.78;4951403;29;20196;-66
2022/04/10 05:42:48;;;;;;;8.68;5.07;;;;;;;15.22;73.52;97068.22;4951508;29;20215;-66
2022/04/10 05:45:13;;;;;;;15.50;6.03;;;;;;;15.30;73.66;97065.56;4951227;29;20184;-67
2022/04/10 05:47:41;;;;;;;13.00;4.78;;;;;;;15.44;72.49;97064.91;4944577;29;20193;-66
2022/04/10 05:50:08;;;;;;;14.05;6.60;;;;;;;15.52;72.46;97049.25;4940466;29;20192;-66
2022/04/10 05:52:38;;;;;;;13.52;7.18;;;;;;;15.59;71.78;97050.19;4943427;29;20765;-66
2022/04/10 05:55:04;;;;;;;11.30;6.03;;;;;;;15.64;71.76;97040.09;4951208;29;20192;-66
2022/04/10 05:57:30;;;;;;;9.07;4.90;;;;;;;15.58;71.41;97028.53;4950885;29;20200;-66
2022/04/10 05:59:55;;;;;;;8.60;5.65;;;;;;;15.75;71.30;97044.94;4921231;29;20667;-66
2022/04/10 06:02:21;;;;;;;15.48;6.13;;;;;;;15.84;71.31;97054.31;4951358;29;20227;-66
2022/04/10 06:04:46;;;;;;;15.32;6.20;;;;;;;15.64;72.05;97060.94;4950596;28;20719;-66
2022/04/10 06:07:11;;;;;;;11.40;5.55;;;;;;;15.69;72.13;97051.63;4950859;29;20284;-66
2022/04/10 06:09:37;;;;;;;11.43;5.00;;;;;;;15.74;72.02;97059.75;4940430;29;20189;-66
2022/04/10 06:12:02;;;;;;;13.18;5.10;;;;;;;15.89;71.34;97057.22;4940025;29;20675;-66
2022/04/10 06:14:28;;;;;;;10.77;5.15;;;;;;;15.89;71.36;97044.19;4945884;29;20698;-66
2022/04/10 06:16:53;;;;;;;12.93;4.63;;;;;;;16.05;70.81;97051.94;4950589;29;20198;-66
2022/04/10 06:19:19;;;;;;;10.48;5.22;;;;;;;16.11;70.07;97056.47;4950644;29;20244;-66
2022/04/10 06:21:45;;;;;;;11.70;4.75;;;;;;;16.23;69.75;97060.31;4922378;29;20585;-66
2022/04/10 06:24:10;;;;;;;11.68;4.50;;;;;;;16.31;69.46;97053.25;4950512;29;20189;-66
2022/04/10 06:26:36;;;;;;;9.18;4.53;;;;;;;16.28;69.53;97048.34;4950320;29;20247;-66
2022/04/10 06:29:02;;;;;;;9.50;5.15;;;;;;;16.42;69.16;97059.88;4947587;29;20291;-66
2022/04/10 06:31:27;;;;;;;15.23;5.38;;;;;;;16.47;69.02;97052.34;4938356;28;20211;-67
2022/04/10 06:33:54;;;;;;;15.43;5.65;;;;;;;16.46;68.96;97058.56;4940709;29;20188;-67
2022/04/10 06:36:19;;;;;;;9.63;5.03;;;;;;;16.36;69.67;97063.16;4948635;29;20191;-67
2022/04/10 06:38:45;;;;;;;10.18;5.38;;;;;;;16.29;69.82;97060.44;4950469;29;20213;-66
2022/04/10 06:41:10;;;;;;;11.15;5.93;;;;;;;16.06;71.45;97059.59;4950060;29;21046;-66
2022/04/10 06:43:36;;;;;;;11.70;5.13;;;;;;;16.18;71.25;97057.41;4950391;29;20675;-66
2022/04/10 06:46:03;;;;;;;11.75;5.40;;;;;;;15.80;73.08;97047.84;4950213;29;20220;-66
2022/04/10 06:48:28;;;;;;;10.43;5.05;;;;;;;16.00;72.44;97049.03;4950080;29;20192;-66
2022/04/10 06:50:54;;;;;;;11.32;5.50;;;;;;;16.02;72.78;97054.88;4942731;29;20204;-66
2022/04/10 06:53:19;;;;;;;13.00;5.28;;;;;;;15.90;73.56;97048.41;4939452;29;20192;-66
2022/04/10 06:55:44;;;;;;;16.50;5.20;;;;;;;15.88;73.72;97045.19;4942631;29;20196;-66
2022/04/10 06:58:10;;;;;;;10.98;4.85;;;;;;;15.89;73.98;97041.59;4949972;29;20208;-66
2022/04/10 07:00:36;;;;;;;12.90;5.50;;;;;;;15.52;76.25;97044.03;4949889;29;20189;-66
2022/04/10 07:03:02;;;;;;;11.50;5.68;;;;;;;15.27;78.26;97040.66;4949594;28;20292;-66
2022/04/10 07:05:28;;;;;;;13.40;5.82;;;;;;;15.08;79.77;97050.63;4949675;29;20677;-66
2022/04/10 07:07:54;;;;;;;12.88;5.25;;;;;;;15.12;80.07;97041.50;4949907;29;20648;-66
2022/04/10 07:10:19;;;;;;;16.00;5.60;;;;;;;15.22;80.04;97047.38;4949457;29;20185;-66
2022/04/10 07:12:45;;;;;;;12.77;5.85;;;;;;;15.62;77.82;97042.06;4938680;29;20693;-67
2022/04/10 07:15:10;;;;;;;14.45;6.03;;;;;;;15.82;75.94;97051.91;4939831;29;20177;-67
2022/04/10 07:17:36;;;;;;;10.15;4.82;;;;;;;16.20;74.02;97040.59;4944726;29;20201;-66
2022/04/10 07:20:02;;;;;;;10.32;4.72;;;;;;;16.26;73.43;97039.91;4949497;29;20193;-66
2022/04/10 07:25:12;;;;;;;16.25;5.45;;;;;;;16.66;71.00;97050.06;4949233;29;20200;-67
2022/04/10 07:27:38;;;;;;;13.30;5.18;;;;;;;16.86;70.83;97045.97;4949341;29;20666;-65
2022/04/10 07:30:04;;;;;;;13.02;5.40;;;;;;;16.83;70.10;97037.69;4949317;29;20219;-66
2022/04/10 07:32:29;;;;;;;14.77;5.10;;;;;;;16.92;70.17;97042.66;4944459;29;20204;-65
2022/04/10 07:34:55;;;;;;;12.38;5.47;;;;;;;16.96;69.59;97053.59;4938041;29;20188;-65
2022/04/10 07:37:20;;;;;;;12.30;5.22;;;;;;;17.00;69.18;97049.63;4940139;29;20664;-66
2022/04/10 07:39:46;;;;;;;13.73;6.10;;;;;;;16.98;69.86;97054.22;4949038;29;20188;-66
2022/04/10 07:42:11;;;;;;;11.15;5.80;;;;;;;16.65;71.38;97045.84;4949127;29;21093;-65
2022/04/10 07:44:36;;;;;;;15.23;6.13;;;;;;;16.81;70.95;97050.13;4948659;28;20191;-67
2022/04/10 07:49:47;;;;;;;15.73;4.53;;;;;;;17.18;69.27;97056.16;4949008;29;20183;-67
2022/04/10 07:52:13;;;;;;;11.05;5.60;;;;;;;17.30;68.77;97056.50;4948916;29;20189;-66
2022/04/10 07:54:39;;;;;;;15.32;5.20;;;;;;;16.99;70.58;97048.00;4938933;29;20282;-66
2022/04/10 07:57:05;;;;;;;12.23;5.05;;;;;;;17.01;70.63;97048.63;4938945;29;20418;-66
2022/04/10 07:59:30;;;;;;;10.63;5.00;;;;;;;17.18;69.62;97055.31;4943556;29;20196;-66
2022/04/10 08:01:56;;;;;;;12.27;5.03;;;;;;;17.35;69.81;97064.63;4948755;29;20617;-66
2022/04/10 08:04:21;;;;;;;14.30;5.00;;;;;;;17.54;68.52;97057.09;4948549;28;20645;-66
2022/04/10 08:06:46;;;;;;;10.75;5.30;;;;;;;17.56;68.26;97062.94;4948764;29;20192;-66
2022/04/10 08:09:12;;;;;;;10.70;4.72;;;;;;;17.20;70.46;97062.00;4949046;29;20192;-66
2022/04/10 08:11:39;;;;;;;11.52;5.57;;;;;;;17.13;70.89;97047.22;4948998;29;20191;-67
2022/04/10 08:14:05;;;;;;;12.57;4.78;;;;;;;16.99;71.29;97042.78;4946986;29;20228;-65
2022/04/10 08:16:30;;;;;;;8.38;4.90;;;;;;;17.18;70.96;97047.47;4937249;29;20320;-65
2022/04/10 08:18:56;;;;;;;12.88;4.80;;;;;;;17.14;70.42;97048.84;4939160;29;20207;-65
2022/04/10 08:21:21;;;;;;;11.30;5.10;;;;;;;17.25;70.42;97056.25;4946331;29;20199;-67
2022/04/10 08:23:47;;;;;;;9.93;4.47;;;;;;;17.32;69.51;97051.91;4948835;29;20192;-67
2022/04/10 08:26:13;;;;;;;11.65;4.40;;;;;;;17.45;69.26;97058.19;4948501;29;20248;-66
2022/04/10 08:28:38;;;;;;;13.40;4.63;;;;;;;17.58;68.60;97058.34;4948719;29;20211;-67
2022/04/10 08:31:05;;;;;;;10.20;5.15;;;;;;;17.75;67.99;97077.28;4948468;29;20578;-67
2022/04/10 08:33:30;;;;;;;11.23;5.50;;;;;;;17.86;67.85;97082.06;4948479;29;20196;-66
2022/04/10 08:35:56;;;;;;;12.20;5.03;;;;;;;17.83;68.07;97079.81;4942575;29;20216;-67
2022/04/10 08:38:22;;;;;;;8.75;5.10;;;;;;;17.84;68.11;97087.47;4920428;29;20220;-68
2022/04/10 08:40:49;;;;;;;14.15;4.75;;;;;;;17.75;68.50;97093.81;4939997;29;20662;-67
2022/04/10 08:43:15;;;;;;;12.70;6.20;;;;;;;17.68;69.37;97097.31;4948715;29;20282;-66
2022/04/10 08:45:43;;;;;;;11.20;4.80;;;;;;;17.74;69.37;97092.19;4948162;29;20192;-66
2022/04/10 08:48:10;;;;;;;17.92;6.30;;;;;;;17.75;69.44;97109.50;4948455;29;20238;-66
2022/04/10 08:50:37;;;;;;;18.88;5.70;;;;;;;17.82;69.13;97093.88;4948385;29;20685;-67
2022/04/10 08:53:04;;;;;;;20.92;7.10;;;;;;;17.88;69.43;97088.72;4948587;29;20227;-66
2022/04/10 08:55:30;;;;;;;16.25;6.72;;;;;;;17.91;71.77;97091.00;4949357;28;20184;-66
2022/04/10 08:57:55;;;;;;;37.60;17.90;;;;;;;17.76;75.83;97100.66;4941542;29;20212;-67
2022/04/10 09:00:23;;;;;;;25.02;9.30;;;;;;;17.86;77.12;97092.53;4942140;29;20212;-67
2022/04/10 09:02:52;;;;;;;19.60;8.35;;;;;;;17.88;77.18;97090.53;4947277;28;20189;-67
2022/04/10 09:05:19;;;;;;;121.90;38.63;;;;;;;17.88;78.13;97103.59;4951238;29;20278;-66
2022/04/10 09:08:08;;;;;;;28.63;10.90;;;;;;;17.79;78.32;97096.88;4951718;29;20196;-67
2022/04/10 09:10:52;;;;;;;16.20;9.18;;;;;;;17.71;80.45;97096.94;4951550;29;20188;-66
2022/04/10 09:13:47;;;;;;;22.52;9.82;;;;;;;17.71;80.59;97089.09;4951812;29;20199;-66
2022/04/10 09:16:22;;;;;;;16.27;7.03;;;;;;;17.68;80.85;97086.84;4951640;29;20196;-66
2022/04/10 09:19:00;;;;;;;13.40;6.53;;;;;;;17.60;82.81;97084.34;4942110;29;20215;-66
2022/04/10 09:21:40;;;;;;;23.92;12.82;;;;;;;17.49;84.36;97084.78;4941441;29;20184;-66
2022/04/10 09:24:07;;;;;;;15.65;8.18;;;;;;;17.44;86.62;97074.84;4948023;29;20190;-65
2022/04/10 09:26:43;;;;;;;15.27;6.85;;;;;;;17.07;90.03;97060.97;4951279;29;20204;-66
2022/04/10 09:29:09;;;;;;;16.58;7.93;;;;;;;17.08;89.96;97052.16;4951349;29;20180;-66
2022/04/10 09:31:35;;;;;;;13.98;7.53;;;;;;;16.91;88.53;97056.72;4951521;29;20615;-66
2022/04/10 09:34:08;;;;;;;20.65;7.07;;;;;;;16.85;82.34;97064.47;4951568;29;20196;-66
2022/04/10 09:36:35;;;;;;;12.68;6.03;;;;;;;16.30;85.20;97067.28;4951365;29;20235;-66
2022/04/10 09:39:06;;;;;;;12.40;6.10;;;;;;;16.34;86.82;97068.56;4945448;29;20640;-66
2022/04/10 09:41:32;;;;;;;10.27;6.60;;;;;;;16.43;90.71;97049.28;4940712;29;20185;-66
2022/04/10 09:44:00;;;;;;;13.90;6.57;;;;;;;16.31;94.30;97053.25;4942961;29;20540;-66
2022/04/10 09:46:25;;;;;;;13.95;7.00;;;;;;;16.35;93.97;97053.72;4951188;29;20578;-66
2022/04/10 09:48:50;;;;;;;13.07;8.00;;;;;;;16.47;91.40;97052.34;4951162;29;20867;-66
2022/04/10 09:51:16;;;;;;;15.88;7.35;;;;;;;16.53;90.69;97059.47;4950945;29;20183;-67
2022/04/10 09:54:00;;;;;;;15.13;7.72;;;;;;;16.29;94.56;97043.97;4950755;29;20640;-67
2022/04/10 09:56:27;;;;;;;15.45;7.25;;;;;;;16.36;93.35;97039.66;4950786;29;20315;-66
2022/04/10 09:58:57;;;;;;;20.98;7.88;;;;;;;16.47;90.21;97031.47;4950812;29;20200;-67
2022/04/10 10:01:24;;;;;;;13.65;7.32;;;;;;;16.43;88.03;97040.63;4939186;29;20189;-68
2022/04/10 10:03:51;;;;;;;15.35;8.40;;;;;;;16.35;89.98;97027.59;4941086;28;20220;-65
2022/04/10 10:06:19;;;;;;;15.73;8.00;;;;;;;16.36;92.20;97024.00;4947426;28;20272;-67
2022/04/10 10:08:45;;;;;;;15.68;8.43;;;;;;;16.66;90.05;97031.78;4950853;29;20173;-66
2022/04/10 10:11:11;;;;;;;15.32;7.65;;;;;;;16.88;86.29;97032.75;4950908;29;20189;-67
2022/04/10 10:13:38;;;;;;;16.60;8.30;;;;;;;17.26;80.42;97039.56;4950933;29;20188;-68
2022/04/10 10:16:04;;;;;;;11.55;7.07;;;;;;;17.59;80.71;97041.66;4950942;29;20570;-68
2022/04/10 10:18:30;;;;;;;19.67;10.40;;;;;;;17.61;78.93;97037.06;4950609;29;20243;-67
2022/04/10 10:20:55;;;;;;;44.45;17.42;;;;;;;17.29;79.58;97028.72;4945879;29;20239;-67
2022/04/10 10:23:22;;;;;;;157.35;51.55;;;;;;;17.38;79.00;97022.47;4939705;29;20250;-65
2022/04/10 10:26:30;;;;;;;68.32;22.90;;;;;;;17.41;71.42;97022.09;4940917;29;20180;-67
2022/04/10 10:29:04;;;;;;;38.60;15.95;;;;;;;17.62;71.08;97024.81;4937060;29;20204;-66
2022/04/10 10:31:54;;;;;;;15.35;6.05;;;;;;;17.81;69.60;97029.47;4950211;29;20673;-66
2022/04/10 10:34:23;;;;;;;13.55;5.90;;;;;;;17.83;70.56;97028.28;4950626;29;20195;-66
2022/04/10 10:36:49;;;;;;;10.10;5.53;;;;;;;17.75;70.23;97014.50;4950142;29;20195;-67
2022/04/10 10:39:14;;;;;;;12.43;5.90;;;;;;;17.74;70.57;97012.88;4950253;29;20672;-66
2022/04/10 10:41:40;;;;;;;11.52;5.72;;;;;;;17.92;66.72;97019.34;4946672;29;20212;-66
2022/04/10 10:44:36;;;;;;;10.57;5.30;;;;;;;17.88;66.68;97012.84;4939287;29;20180;-67
2022/04/10 10:47:03;;;;;;;15.48;5.95;;;;;;;17.88;65.58;97009.41;4927742;29;20243;-67
2022/04/10 10:49:44;;;;;;;12.50;6.63;;;;;;;18.02;66.62;97011.19;4950600;29;20270;-68
2022/04/10 10:52:10;;;;;;;8.70;5.05;;;;;;;18.10;65.75;97009.28;4932897;29;20748;-66
2022/04/10 10:54:42;;;;;;;8.68;4.93;;;;;;;18.39;62.30;97008.38;4949696;29;20313;-66
2022/04/10 10:57:23;;;;;;;12.80;6.43;;;;;;;18.44;60.36;97006.81;4950034;29;20207;-68
2022/04/10 10:59:53;;;;;;;12.35;6.35;;;;;;;18.78;59.35;96998.25;4949826;29;20207;-67
2022/04/10 11:02:20;;;;;;;12.25;7.25;;;;;;;19.14;58.17;96998.91;4948304;29;20192;-66
2022/04/10 11:04:50;;;;;;;15.75;8.77;;;;;;;19.17;56.97;96999.31;4938056;28;20212;-66
2022/04/10 11:07:18;;;;;;;9.27;5.88;;;;;;;19.09;59.62;96996.03;4940306;29;20914;-66
2022/04/10 11:10:04;;;;;;;14.63;5.13;;;;;;;19.40;59.29;96999.09;4947635;29;20181;-66
2022/04/10 11:12:35;;;;;;;10.48;4.63;;;;;;;19.47;58.56;96992.84;4949046;29;20337;-66
2022/04/10 11:15:11;;;;;;;9.77;5.10;;;;;;;19.53;58.13;96967.66;4949856;29;20259;-66
2022/04/10 11:17:37;;;;;;;10.50;5.65;;;;;;;19.62;56.53;96969.09;4949032;28;20215;-66
2022/04/10 11:20:05;;;;;;;10.77;5.20;;;;;;;19.41;55.32;96967.41;4949180;29;20192;-66
2022/04/10 11:22:45;;;;;;;10.90;6.03;;;;;;;19.26;59.16;96971.16;4949112;29;20184;-66
2022/04/10 11:25:11;;;;;;;8.70;4.85;;;;;;;18.84;57.29;96945.84;4938606;29;20270;-66
2022/04/10 11:27:50;;;;;;;12.60;5.20;;;;;;;18.74;60.27;96960.31;4939197;29;20184;-67
2022/04/10 11:30:29;;;;;;;13.55;7.00;;;;;;;18.58;61.04;96960.56;4945445;29;20190;-66
2022/04/10 11:33:02;;;;;;;10.70;6.65;;;;;;;18.60;61.82;96948.13;4949037;29;20177;-67
2022/04/10 11:35:31;;;;;;;12.98;5.78;;;;;;;18.67;62.39;96941.09;4949065;29;20702;-66